createdAt,value
2022-07-25T00:02:29.214Z,18.19
2022-07-25T00:06:30.778Z,18.17
2022-07-25T00:10:32.393Z,18.10
2022-07-25T00:14:33.847Z,18.03
2022-07-25T00:18:35.411Z,17.96
2022-07-25T00:22:36.826Z,17.90
2022-07-25T00:26:40.414Z,17.79
2022-07-25T00:30:42.110Z,17.73
2022-07-25T00:34:43.731Z,17.71
2022-07-25T00:38:45.609Z,17.69
2022-07-25T00:42:47.517Z,17.66
2022-07-25T00:46:49.321Z,17.64
2022-07-25T00:50:51.278Z,17.64
2022-07-25T00:54:52.931Z,17.59
2022-07-25T00:58:54.722Z,17.56
2022-07-25T01:02:56.579Z,17.50
2022-07-25T01:06:58.539Z,17.44
2022-07-25T01:11:00.156Z,17.40
2022-07-25T01:15:01.664Z,17.34
2022-07-25T01:19:03.447Z,17.29
2022-07-25T01:23:05.131Z,17.16
2022-07-25T01:27:06.662Z,17.18
2022-07-25T01:31:09.469Z,17.15
2022-07-25T01:35:12.512Z,17.14
2022-07-25T01:39:14.132Z,17.11
2022-07-25T01:43:15.635Z,16.91
2022-07-25T01:47:17.373Z,16.88
2022-07-25T01:51:20.399Z,16.88
2022-07-25T01:55:22.276Z,16.86
2022-07-25T01:59:23.835Z,16.79
2022-07-25T02:03:31.278Z,16.66
2022-07-25T02:07:33.012Z,16.70
2022-07-25T02:11:35.615Z,16.71
2022-07-25T02:15:37.401Z,16.70
2022-07-25T02:19:39.265Z,16.65
2022-07-25T02:23:40.754Z,16.60
2022-07-25T02:27:42.425Z,16.59
2022-07-25T02:31:43.915Z,16.52
2022-07-25T02:35:45.617Z,16.45
2022-07-25T02:39:47.078Z,16.38
2022-07-25T02:43:48.623Z,16.37
2022-07-25T02:47:50.385Z,16.30
2022-07-25T02:51:53.255Z,16.29
2022-07-25T02:55:54.827Z,16.25
2022-07-25T02:59:58.244Z,16.26
2022-07-25T03:03:59.855Z,16.28
2022-07-25T03:08:02.290Z,16.20
2022-07-25T03:12:04.186Z,16.11
2022-07-25T03:16:07.529Z,16.14
2022-07-25T03:20:10.109Z,16.15
2022-07-25T03:24:11.954Z,16.11
2022-07-25T03:28:13.508Z,16.10
2022-07-25T03:32:15.092Z,16.06
2022-07-25T03:36:16.702Z,16.05
2022-07-25T03:40:19.408Z,15.99
2022-07-25T03:44:21.997Z,15.91
2022-07-25T03:48:23.517Z,15.89
2022-07-25T03:52:25.957Z,15.84
2022-07-25T03:56:31.584Z,15.80
2022-07-25T04:00:33.772Z,15.84
2022-07-25T04:04:36.115Z,15.86
2022-07-25T04:08:37.847Z,15.83
2022-07-25T04:12:40.367Z,15.84
2022-07-25T04:16:41.926Z,15.83
2022-07-25T04:20:43.526Z,15.82
2022-07-25T04:24:44.962Z,15.78
2022-07-25T04:28:46.795Z,15.76
2022-07-25T04:32:48.290Z,15.80
2022-07-25T04:36:50.415Z,15.92
2022-07-25T04:40:51.966Z,16.04
2022-07-25T04:44:54.217Z,16.19
2022-07-25T04:48:55.927Z,16.35
2022-07-25T04:52:57.394Z,16.38
2022-07-25T04:56:58.904Z,16.45
2022-07-25T05:01:00.658Z,16.67
2022-07-25T05:05:03.138Z,16.83
2022-07-25T05:09:05.167Z,17.01
2022-07-25T05:13:06.594Z,17.19
2022-07-25T05:17:08.025Z,17.41
2022-07-25T05:25:30.298Z,17.84
2022-07-25T05:29:32.354Z,18.10
2022-07-25T05:33:34.374Z,18.38
2022-07-25T05:37:36.951Z,18.63
2022-07-25T05:41:38.631Z,18.92
2022-07-25T05:45:41.122Z,19.20
2022-07-25T05:49:43.225Z,19.52
2022-07-25T05:53:44.584Z,19.91
2022-07-25T05:57:46.023Z,20.36
2022-07-25T06:01:47.623Z,20.96
2022-07-25T06:05:49.402Z,21.63
2022-07-25T06:09:50.892Z,22.31
2022-07-25T06:13:52.342Z,22.99
2022-07-25T06:17:54.690Z,23.63
2022-07-25T06:21:56.206Z,24.30
2022-07-25T06:25:57.759Z,24.95
2022-07-25T06:29:59.784Z,25.58
2022-07-25T06:34:01.294Z,26.18
2022-07-25T06:38:02.707Z,26.67
2022-07-25T06:42:04.574Z,27.22
2022-07-25T06:46:06.182Z,27.68
2022-07-25T06:50:11.235Z,28.00
2022-07-25T06:54:15.480Z,28.28
2022-07-25T06:58:16.966Z,28.52
2022-07-25T07:02:24.366Z,28.65
2022-07-25T07:06:26.089Z,28.68
2022-07-25T07:10:28.327Z,28.88
2022-07-25T07:14:29.859Z,29.08
2022-07-25T07:18:31.575Z,29.15
2022-07-25T07:22:42.782Z,29.38
2022-07-25T07:26:44.607Z,29.57
2022-07-25T07:35:08.239Z,30.06
2022-07-25T07:39:09.922Z,30.35
2022-07-25T07:43:11.520Z,30.52
2022-07-25T07:47:16.248Z,30.76
2022-07-25T07:51:18.231Z,30.60
2022-07-25T07:55:38.926Z,30.85
2022-07-25T07:59:40.391Z,31.02
2022-07-25T08:03:41.927Z,30.79
2022-07-25T08:07:43.579Z,30.17
2022-07-25T08:11:45.035Z,29.71
2022-07-25T08:15:48.915Z,29.86
2022-07-25T08:19:51.301Z,30.44
2022-07-25T08:23:52.729Z,30.97
2022-07-25T08:27:54.435Z,31.57
2022-07-25T08:31:55.834Z,32.09
2022-07-25T08:35:58.920Z,32.44
2022-07-25T08:40:00.552Z,32.55
2022-07-25T08:44:03.276Z,32.32
2022-07-25T08:48:05.478Z,32.38
2022-07-25T08:52:08.751Z,32.27
2022-07-25T08:56:13.746Z,32.65
2022-07-25T09:00:20.307Z,32.89
2022-07-25T09:04:22.068Z,33.18
2022-07-25T09:08:23.623Z,33.52
2022-07-25T09:12:27.379Z,33.58
2022-07-25T09:16:30.742Z,33.73
2022-07-25T09:21:01.918Z,33.92
2022-07-25T09:25:03.584Z,33.83
2022-07-25T09:29:05.068Z,33.56
2022-07-25T09:33:06.536Z,33.37
2022-07-25T09:37:12.767Z,33.09
2022-07-25T09:41:14.211Z,32.83
2022-07-25T09:45:15.897Z,32.58
2022-07-25T09:49:17.454Z,32.57
2022-07-25T09:53:20.143Z,32.36
2022-07-25T09:57:24.448Z,32.38
2022-07-25T10:01:34.143Z,32.52
2022-07-25T10:05:46.368Z,32.56
2022-07-25T10:09:49.967Z,32.68
2022-07-25T10:13:53.402Z,32.66
2022-07-25T10:18:06.710Z,32.80
2022-07-25T10:22:08.887Z,33.32
2022-07-25T10:26:16.252Z,33.78
2022-07-25T10:30:26.270Z,34.48
2022-07-25T10:34:31.464Z,34.61
2022-07-25T10:38:33.195Z,34.13
2022-07-25T10:42:34.855Z,33.78
2022-07-25T10:46:36.348Z,33.58
2022-07-25T10:51:04.184Z,33.54
2022-07-25T10:55:06.572Z,33.58
2022-07-25T10:59:08.434Z,33.43
2022-07-25T11:03:13.420Z,33.20
2022-07-25T11:07:19.376Z,33.06
2022-07-25T11:11:20.891Z,32.89
2022-07-25T11:15:24.097Z,32.97
2022-07-25T11:19:27.951Z,33.21
2022-07-25T11:23:29.473Z,33.09
2022-07-25T11:27:33.436Z,33.11
2022-07-25T11:31:35.911Z,33.14
2022-07-25T11:35:37.884Z,33.25
2022-07-25T11:39:42.026Z,33.12
2022-07-25T11:43:48.663Z,32.87
2022-07-25T11:48:14.602Z,32.73
2022-07-25T11:52:24.097Z,32.70
2022-07-25T11:56:42.557Z,32.53
2022-07-25T12:00:47.956Z,32.47
2022-07-25T12:04:57.848Z,32.42
2022-07-25T12:09:15.050Z,32.72
2022-07-25T12:13:30.616Z,32.97
2022-07-25T12:17:32.254Z,33.13
2022-07-25T12:21:33.686Z,32.99
2022-07-25T12:25:37.450Z,33.16
2022-07-25T12:29:39.990Z,33.46
2022-07-25T12:33:41.534Z,33.71
2022-07-25T12:37:43.873Z,33.82
2022-07-25T12:41:45.649Z,34.09
2022-07-25T12:45:47.311Z,34.21
2022-07-25T12:49:48.923Z,34.43
2022-07-25T12:53:50.618Z,34.52
2022-07-25T12:57:52.405Z,34.52
2022-07-25T13:01:54.055Z,34.61
2022-07-25T13:05:55.637Z,34.74
2022-07-25T13:09:57.138Z,34.52
2022-07-25T13:13:59.016Z,34.67
2022-07-25T13:18:02.748Z,34.66
2022-07-25T13:22:04.566Z,34.49
2022-07-25T13:26:06.790Z,34.60
2022-07-25T13:30:18.614Z,34.51
2022-07-25T13:34:25.404Z,34.19
2022-07-25T13:38:27.550Z,33.75
2022-07-25T13:42:30.828Z,33.77
2022-07-25T13:46:32.933Z,33.73
2022-07-25T13:50:35.726Z,33.38
2022-07-25T13:54:48.495Z,33.00
2022-07-25T13:58:50.009Z,32.39
2022-07-25T14:02:51.622Z,32.01
2022-07-25T14:06:53.188Z,31.86
2022-07-25T14:10:54.757Z,31.51
2022-07-25T14:14:56.175Z,31.41
2022-07-25T14:18:57.819Z,31.68
2022-07-25T14:22:59.251Z,31.69
2022-07-25T14:27:01.101Z,31.93
2022-07-25T14:31:03.182Z,31.97
2022-07-25T14:35:06.083Z,32.05
2022-07-25T14:39:08.326Z,31.87
2022-07-25T14:43:10.039Z,32.08
2022-07-25T14:47:12.765Z,32.17
2022-07-25T14:51:14.278Z,32.22
2022-07-25T14:55:15.748Z,32.13
2022-07-25T14:59:17.691Z,31.97
2022-07-25T15:03:19.355Z,32.13
2022-07-25T15:07:20.938Z,32.20
2022-07-25T15:11:22.538Z,32.35
2022-07-25T15:15:24.139Z,32.63
2022-07-25T15:19:27.300Z,32.81
2022-07-25T15:23:30.573Z,32.96
2022-07-25T15:27:32.403Z,32.82
2022-07-25T15:31:34.018Z,32.80
2022-07-25T15:35:35.734Z,32.42
2022-07-25T15:39:37.191Z,32.02
2022-07-25T15:43:39.370Z,31.66
2022-07-25T15:47:40.997Z,31.74
2022-07-25T15:51:42.549Z,31.71
2022-07-25T15:55:44.542Z,31.79
2022-07-25T15:59:46.133Z,31.74
2022-07-25T16:03:47.832Z,31.49
2022-07-25T16:07:49.447Z,31.42
2022-07-25T16:11:50.943Z,31.62
2022-07-25T16:15:52.770Z,31.51
2022-07-25T16:19:57.797Z,31.31
2022-07-25T16:23:59.205Z,31.09
2022-07-25T16:28:00.790Z,30.74
2022-07-25T16:32:02.932Z,30.62
2022-07-25T16:36:05.086Z,30.35
2022-07-25T16:40:08.106Z,30.15
2022-07-25T16:44:10.319Z,29.73
2022-07-25T16:48:11.794Z,29.47
2022-07-25T16:52:13.241Z,29.21
2022-07-25T16:56:16.861Z,28.98
2022-07-25T17:00:18.429Z,28.76
2022-07-25T17:04:19.877Z,28.56
2022-07-25T17:08:21.334Z,28.48
2022-07-25T17:12:22.815Z,28.40
2022-07-25T17:16:24.303Z,28.35
2022-07-25T17:20:25.837Z,28.31
2022-07-25T17:24:27.263Z,28.26
2022-07-25T17:28:29.044Z,28.10
2022-07-25T17:32:30.548Z,27.94
2022-07-25T17:36:32.086Z,27.84
2022-07-25T17:40:34.055Z,27.65
2022-07-25T17:44:35.942Z,27.53
2022-07-25T17:48:37.476Z,27.46
2022-07-25T17:52:39.094Z,27.37
2022-07-25T17:56:40.846Z,27.26
2022-07-25T18:00:42.366Z,27.13
2022-07-25T18:04:43.881Z,26.99
2022-07-25T18:08:45.454Z,26.84
2022-07-25T18:12:47.539Z,26.72
2022-07-25T18:16:48.935Z,26.59
2022-07-25T18:20:50.550Z,26.51
2022-07-25T18:24:52.336Z,26.43
2022-07-25T18:28:54.433Z,26.27
2022-07-25T18:32:55.881Z,26.16
2022-07-25T18:36:57.800Z,26.04
2022-07-25T18:41:26.306Z,25.95
2022-07-25T18:45:20.908Z,25.80
2022-07-25T18:49:23.668Z,25.63
2022-07-25T18:53:25.147Z,25.48
2022-07-25T18:57:26.762Z,25.45
2022-07-25T19:01:28.220Z,25.38
2022-07-25T19:05:31.059Z,25.35
2022-07-25T19:09:33.119Z,25.25
2022-07-25T19:13:51.649Z,25.19
2022-07-25T19:17:53.871Z,25.15
2022-07-25T19:21:55.456Z,25.00
2022-07-25T19:25:57.690Z,24.96
2022-07-25T19:30:03.905Z,24.88
2022-07-25T19:34:11.791Z,24.74
2022-07-25T19:38:25.993Z,24.66
2022-07-25T19:42:29.995Z,24.61
2022-07-25T19:46:41.199Z,24.52
2022-07-25T19:55:20.589Z,24.26
2022-07-25T19:59:29.172Z,24.22
2022-07-25T20:03:33.610Z,24.25
2022-07-25T20:07:35.061Z,24.26
2022-07-25T20:11:37.685Z,24.26
2022-07-25T20:15:40.513Z,24.24
2022-07-25T20:19:42.401Z,24.18
2022-07-25T20:23:45.051Z,24.13
2022-07-25T20:27:49.547Z,24.11
2022-07-25T20:31:52.805Z,24.09
2022-07-25T20:35:55.650Z,24.06
2022-07-25T20:39:57.808Z,24.02
2022-07-25T20:44:00.823Z,23.97
2022-07-25T20:48:02.936Z,23.97
2022-07-25T20:52:12.567Z,23.97
2022-07-25T20:56:19.492Z,23.93
2022-07-25T21:00:27.400Z,23.85
2022-07-25T21:04:28.821Z,23.84
2022-07-25T21:08:30.329Z,23.78
2022-07-25T21:12:32.994Z,23.73
2022-07-25T21:16:34.924Z,23.67
2022-07-25T21:20:37.432Z,23.60
2022-07-25T21:24:39.009Z,23.56
2022-07-25T21:28:41.610Z,23.48
2022-07-25T21:32:45.123Z,23.42
2022-07-25T21:36:47.156Z,23.32
2022-07-25T21:40:48.703Z,23.24
2022-07-25T21:44:50.614Z,23.04
2022-07-25T21:49:17.242Z,22.89
2022-07-25T21:53:39.409Z,22.61
2022-07-25T21:57:40.913Z,22.34
2022-07-25T22:01:44.125Z,22.19
2022-07-25T22:05:45.775Z,22.07
2022-07-25T22:09:47.263Z,21.87
2022-07-25T22:13:49.054Z,21.73
2022-07-25T22:17:50.958Z,21.67
2022-07-25T22:21:55.086Z,21.65
2022-07-25T22:25:56.488Z,21.63
2022-07-25T22:29:57.995Z,21.60
2022-07-25T22:34:00.135Z,21.57
2022-07-25T22:38:01.625Z,21.54
2022-07-25T22:42:03.478Z,21.51
2022-07-25T22:46:04.953Z,21.46
2022-07-25T22:50:07.488Z,21.44
2022-07-25T22:54:11.356Z,21.40
2022-07-25T22:58:13.597Z,21.38
2022-07-25T23:02:16.134Z,21.32
2022-07-25T23:06:19.483Z,21.26
2022-07-25T23:10:21.457Z,21.18
2022-07-25T23:14:25.155Z,21.11
2022-07-25T23:18:27.437Z,21.07
2022-07-25T23:22:29.117Z,21.01
2022-07-25T23:26:30.638Z,20.91
2022-07-25T23:30:35.445Z,20.81
2022-07-25T23:34:41.703Z,20.76
2022-07-25T23:38:43.534Z,20.72
2022-07-25T23:42:45.468Z,20.62
2022-07-25T23:46:49.547Z,20.54
2022-07-25T23:50:51.651Z,20.42
2022-07-25T23:54:54.501Z,20.38
2022-07-25T23:58:57.991Z,20.28
